createdAt,value
2017-09-29T00:02:25.160Z,17.90
2017-09-29T00:04:53.649Z,17.80
2017-09-29T00:07:21.965Z,17.80
2017-09-29T00:09:50.270Z,17.70
2017-09-29T00:12:18.527Z,17.70
2017-09-29T00:14:46.774Z,17.70
2017-09-29T00:17:15.056Z,17.70
2017-09-29T00:19:49.358Z,17.70
2017-09-29T00:22:17.646Z,17.70
2017-09-29T00:24:45.981Z,17.70
2017-09-29T00:27:14.271Z,17.60
2017-09-29T00:29:42.593Z,17.60
2017-09-29T00:32:10.888Z,17.60
2017-09-29T00:34:39.145Z,17.70
2017-09-29T00:37:07.394Z,17.70
2017-09-29T00:39:34.910Z,17.70
2017-09-29T00:42:03.163Z,17.60
2017-09-29T00:44:31.446Z,17.60
2017-09-29T00:46:59.698Z,17.70
2017-09-29T00:49:27.278Z,17.70
2017-09-29T00:51:55.555Z,17.70
2017-09-29T00:54:28.701Z,17.80
2017-09-29T00:56:57.863Z,17.70
2017-09-29T00:59:28.582Z,17.70
2017-09-29T01:01:57.662Z,17.70
2017-09-29T01:04:29.732Z,17.60
2017-09-29T01:06:59.282Z,17.60
2017-09-29T01:09:28.114Z,17.60
2017-09-29T01:11:57.498Z,17.60
2017-09-29T01:14:25.762Z,17.60
2017-09-29T01:17:04.163Z,17.60
2017-09-29T01:19:32.418Z,17.60
2017-09-29T01:22:08.442Z,17.60
2017-09-29T01:24:36.694Z,17.60
2017-09-29T01:27:05.059Z,17.60
2017-09-29T01:29:33.358Z,17.60
2017-09-29T01:32:01.648Z,17.70
2017-09-29T01:34:29.935Z,17.70
2017-09-29T01:37:04.059Z,17.70
2017-09-29T01:39:32.364Z,17.70
2017-09-29T01:42:04.491Z,17.70
2017-09-29T01:44:32.783Z,17.70
2017-09-29T01:47:06.417Z,17.70
2017-09-29T01:49:34.706Z,17.70
2017-09-29T01:52:06.514Z,17.80
2017-09-29T01:54:34.802Z,17.70
2017-09-29T01:57:03.107Z,17.60
2017-09-29T01:59:31.383Z,17.70
2017-09-29T02:01:59.706Z,17.60
2017-09-29T02:04:29.294Z,17.60
2017-09-29T02:07:01.174Z,17.60
2017-09-29T02:09:29.454Z,17.60
2017-09-29T02:11:58.438Z,17.60
2017-09-29T02:14:27.958Z,17.60
2017-09-29T02:16:59.502Z,17.60
2017-09-29T02:19:28.774Z,17.60
2017-09-29T02:22:00.623Z,17.60
2017-09-29T02:24:28.919Z,17.60
2017-09-29T02:27:00.606Z,17.60
2017-09-29T02:29:28.890Z,17.60
2017-09-29T02:31:59.175Z,17.60
2017-09-29T02:34:28.290Z,17.60
2017-09-29T02:37:00.385Z,17.60
2017-09-29T02:39:28.694Z,17.60
2017-09-29T02:41:57.947Z,17.60
2017-09-29T02:44:26.292Z,17.60
2017-09-29T02:46:54.582Z,17.60
2017-09-29T02:49:24.075Z,17.60
2017-09-29T02:51:53.247Z,17.60
2017-09-29T02:54:22.101Z,17.60
2017-09-29T02:56:58.411Z,17.60
2017-09-29T02:59:29.765Z,17.60
2017-09-29T03:02:05.911Z,17.60
2017-09-29T03:04:35.339Z,17.60
2017-09-29T03:07:03.627Z,17.60
2017-09-29T03:09:40.215Z,17.60
2017-09-29T03:12:08.498Z,17.60
2017-09-29T03:14:36.819Z,17.50
2017-09-29T03:17:05.090Z,17.50
2017-09-29T03:19:33.463Z,17.60
2017-09-29T03:22:01.756Z,17.60
2017-09-29T03:24:30.016Z,17.60
2017-09-29T03:26:58.347Z,17.60
2017-09-29T03:29:27.803Z,17.60
2017-09-29T03:31:59.674Z,17.60
2017-09-29T03:34:29.243Z,17.60
2017-09-29T03:37:00.696Z,17.60
2017-09-29T03:39:28.966Z,17.60
2017-09-29T03:41:58.091Z,17.60
2017-09-29T03:44:27.447Z,17.60
2017-09-29T03:46:55.743Z,17.60
2017-09-29T03:49:23.998Z,17.60
2017-09-29T03:52:02.967Z,17.50
2017-09-29T03:54:31.480Z,17.50
2017-09-29T03:57:06.807Z,17.50
2017-09-29T03:59:35.098Z,17.50
2017-09-29T04:02:03.378Z,17.50
2017-09-29T04:04:31.677Z,17.50
2017-09-29T04:06:59.955Z,17.50
2017-09-29T04:09:28.255Z,17.50
2017-09-29T04:11:57.582Z,17.50
2017-09-29T04:14:25.830Z,17.50
2017-09-29T04:16:54.104Z,17.50
2017-09-29T04:19:23.212Z,17.50
2017-09-29T04:21:52.244Z,17.50
2017-09-29T04:24:20.831Z,17.50
2017-09-29T04:26:49.089Z,17.50
2017-09-29T04:29:17.388Z,17.50
2017-09-29T04:31:45.659Z,17.50
2017-09-29T04:34:16.998Z,17.50
2017-09-29T04:36:45.283Z,17.50
2017-09-29T04:39:13.582Z,17.50
2017-09-29T04:41:41.889Z,17.50
2017-09-29T04:44:10.189Z,17.40
2017-09-29T04:46:38.443Z,17.40
2017-09-29T04:49:06.784Z,17.40
2017-09-29T04:51:35.038Z,17.30
2017-09-29T04:54:03.317Z,17.30
2017-09-29T04:56:31.581Z,17.30
2017-09-29T04:58:59.870Z,17.30
2017-09-29T05:01:29.123Z,17.30
2017-09-29T05:03:58.390Z,17.20
2017-09-29T05:06:27.740Z,17.20
2017-09-29T05:08:57.724Z,17.20
2017-09-29T05:11:27.739Z,17.20
2017-09-29T05:13:56.719Z,17.10
2017-09-29T05:16:24.989Z,17.20
2017-09-29T05:18:54.520Z,17.10
2017-09-29T05:21:23.302Z,17.10
2017-09-29T05:23:52.071Z,17.10
2017-09-29T05:26:20.342Z,17.10
2017-09-29T05:28:48.614Z,17.10
2017-09-29T05:31:16.910Z,17.10
2017-09-29T05:33:45.199Z,17.00
2017-09-29T05:36:13.479Z,17.00
2017-09-29T05:38:41.743Z,17.10
2017-09-29T05:41:10.023Z,17.00
2017-09-29T05:43:38.309Z,17.00
2017-09-29T05:46:06.586Z,17.00
2017-09-29T05:48:34.878Z,17.00
2017-09-29T05:51:03.142Z,17.00
2017-09-29T05:53:31.410Z,17.00
2017-09-29T05:55:59.707Z,17.00
2017-09-29T05:58:29.286Z,17.00
2017-09-29T06:00:58.714Z,16.90
2017-09-29T06:03:27.956Z,16.90
2017-09-29T06:05:56.921Z,17.00
2017-09-29T06:08:25.214Z,17.00
2017-09-29T06:10:58.228Z,17.00
2017-09-29T06:13:27.645Z,17.00
2017-09-29T06:15:55.895Z,17.10
2017-09-29T06:18:24.146Z,17.10
2017-09-29T06:20:53.403Z,17.10
2017-09-29T06:23:22.086Z,17.10
2017-09-29T06:25:50.379Z,17.10
2017-09-29T06:28:18.650Z,17.20
2017-09-29T06:30:46.930Z,17.20
2017-09-29T06:33:15.178Z,17.20
2017-09-29T06:35:43.475Z,17.20
2017-09-29T06:38:11.754Z,17.20
2017-09-29T06:40:40.056Z,17.30
2017-09-29T06:43:08.375Z,17.20
2017-09-29T06:45:36.639Z,17.10
2017-09-29T06:48:04.900Z,17.10
2017-09-29T06:50:33.189Z,17.20
2017-09-29T06:53:01.451Z,17.20
2017-09-29T06:55:29.738Z,17.20
2017-09-29T06:57:59.170Z,17.20
2017-09-29T07:00:28.823Z,17.20
2017-09-29T07:02:57.079Z,17.20
2017-09-29T07:05:25.362Z,17.20
2017-09-29T07:07:54.352Z,17.20
2017-09-29T07:10:22.603Z,17.20
2017-09-29T07:12:50.859Z,17.30
2017-09-29T07:15:19.163Z,17.30
2017-09-29T07:17:47.759Z,17.40
2017-09-29T07:20:16.055Z,17.40
2017-09-29T07:22:44.310Z,17.40
2017-09-29T07:25:16.894Z,17.30
2017-09-29T07:27:46.062Z,17.30
2017-09-29T07:30:15.527Z,17.30
2017-09-29T07:32:43.011Z,17.30
2017-09-29T07:35:11.296Z,17.30
2017-09-29T07:37:39.591Z,17.40
2017-09-29T07:40:07.839Z,17.30
2017-09-29T07:42:36.094Z,17.30
2017-09-29T07:45:04.367Z,17.40
2017-09-29T07:47:32.623Z,17.50
2017-09-29T07:50:00.921Z,17.50
2017-09-29T07:52:28.407Z,17.50
2017-09-29T07:54:59.622Z,17.60
2017-09-29T07:57:29.047Z,17.60
2017-09-29T07:59:58.547Z,17.70
2017-09-29T08:02:27.910Z,17.80
2017-09-29T08:04:56.856Z,17.90
2017-09-29T08:07:25.107Z,18.00
2017-09-29T08:09:54.671Z,18.00
2017-09-29T08:12:24.240Z,18.00
2017-09-29T08:14:53.405Z,18.00
2017-09-29T08:17:22.151Z,18.00
2017-09-29T08:19:50.430Z,18.10
2017-09-29T08:22:18.687Z,18.20
2017-09-29T08:24:46.978Z,18.20
2017-09-29T08:27:25.075Z,18.20
2017-09-29T08:29:54.470Z,18.30
2017-09-29T08:32:23.650Z,18.50
2017-09-29T08:34:53.046Z,18.50
2017-09-29T08:37:21.343Z,18.40
2017-09-29T08:39:49.606Z,18.50
2017-09-29T08:42:17.092Z,18.50
2017-09-29T08:44:45.375Z,18.60
2017-09-29T08:47:13.636Z,18.70
2017-09-29T08:49:41.923Z,18.70
2017-09-29T08:52:10.180Z,18.80
2017-09-29T08:54:38.434Z,19.00
2017-09-29T08:57:06.718Z,19.10
2017-09-29T08:59:34.975Z,19.20
2017-09-29T09:02:03.288Z,19.40
2017-09-29T09:04:31.550Z,19.40
2017-09-29T09:06:59.808Z,19.60
2017-09-29T09:09:27.727Z,19.50
2017-09-29T09:11:56.699Z,19.70
2017-09-29T09:14:24.987Z,19.70
2017-09-29T09:16:53.995Z,19.80
2017-09-29T09:19:23.823Z,19.80
2017-09-29T09:21:52.143Z,19.90
2017-09-29T09:24:20.433Z,19.90
2017-09-29T09:26:48.710Z,19.90
2017-09-29T09:29:16.970Z,19.80
2017-09-29T09:31:45.263Z,19.80
2017-09-29T09:34:13.519Z,19.70
2017-09-29T09:36:41.799Z,19.80
2017-09-29T09:39:10.092Z,19.80
2017-09-29T09:41:38.352Z,19.90
2017-09-29T09:44:06.654Z,20.10
2017-09-29T09:46:34.912Z,20.30
2017-09-29T09:49:02.398Z,20.30
2017-09-29T09:51:30.707Z,20.50
2017-09-29T09:53:58.963Z,20.50
2017-09-29T09:56:27.218Z,20.50
2017-09-29T09:58:55.499Z,20.50
2017-09-29T10:01:23.755Z,20.40
2017-09-29T10:03:53.243Z,20.50
2017-09-29T10:06:22.143Z,20.60
2017-09-29T10:08:50.430Z,20.80
2017-09-29T10:11:18.690Z,20.80
2017-09-29T10:13:46.985Z,20.80
2017-09-29T10:16:14.488Z,20.80
2017-09-29T10:18:42.787Z,20.60
2017-09-29T10:21:11.039Z,20.60
2017-09-29T10:23:39.295Z,20.70
2017-09-29T10:26:07.574Z,20.80
2017-09-29T10:28:35.840Z,20.90
2017-09-29T10:31:03.359Z,20.90
2017-09-29T10:33:31.670Z,20.90
2017-09-29T10:36:03.126Z,20.90
2017-09-29T10:38:31.402Z,21.00
2017-09-29T10:40:59.728Z,21.10
2017-09-29T10:43:27.254Z,21.10
2017-09-29T10:45:58.084Z,21.10
2017-09-29T10:48:26.382Z,21.00
2017-09-29T10:50:55.876Z,21.00
2017-09-29T10:53:24.123Z,21.00
2017-09-29T10:56:06.822Z,21.10
2017-09-29T10:58:35.082Z,21.20
2017-09-29T11:01:03.366Z,21.30
2017-09-29T11:03:31.615Z,21.20
2017-09-29T11:06:00.863Z,21.30
2017-09-29T11:08:29.127Z,21.50
2017-09-29T11:10:58.391Z,21.60
2017-09-29T11:13:27.630Z,21.60
2017-09-29T11:15:55.890Z,21.60
2017-09-29T11:18:24.175Z,21.70
2017-09-29T11:20:59.833Z,21.80
2017-09-29T11:23:27.683Z,21.80
2017-09-29T11:32:03.940Z,21.90
2017-09-29T11:34:32.227Z,21.80
2017-09-29T11:37:00.487Z,21.90
2017-09-29T11:39:28.734Z,21.90
2017-09-29T11:41:57.036Z,21.90
2017-09-29T11:44:27.124Z,22.00
2017-09-29T11:46:55.404Z,22.00
2017-09-29T11:49:23.699Z,22.00
2017-09-29T11:57:36.719Z,22.10
2017-09-29T12:00:04.971Z,22.20
2017-09-29T12:02:33.224Z,22.20
2017-09-29T12:05:01.508Z,22.20
2017-09-29T12:07:29.759Z,22.20
2017-09-29T12:09:58.051Z,22.20
2017-09-29T12:12:26.299Z,22.20
2017-09-29T12:14:54.557Z,22.30
2017-09-29T12:17:22.844Z,22.40
2017-09-29T12:19:51.136Z,22.40
2017-09-29T12:22:19.383Z,22.40
2017-09-29T12:24:57.358Z,22.40
2017-09-29T12:27:25.615Z,22.40
2017-09-29T12:29:53.962Z,22.40
2017-09-29T12:32:22.252Z,22.40
2017-09-29T12:34:50.542Z,22.30
2017-09-29T12:37:18.787Z,22.30
2017-09-29T12:39:49.067Z,22.30
2017-09-29T12:42:17.343Z,22.40
2017-09-29T12:44:55.648Z,22.30
2017-09-29T12:47:23.972Z,22.30
2017-09-29T12:49:52.266Z,22.30
2017-09-29T12:52:20.544Z,22.30
2017-09-29T12:54:48.797Z,22.30
2017-09-29T12:57:16.319Z,22.20
2017-09-29T12:59:48.250Z,22.30
2017-09-29T13:08:04.499Z,22.30
2017-09-29T13:10:33.411Z,22.50
2017-09-29T13:13:01.711Z,22.50
2017-09-29T13:15:30.993Z,22.50
2017-09-29T13:17:59.311Z,22.60
2017-09-29T13:20:27.826Z,22.50
2017-09-29T13:22:56.080Z,22.60
2017-09-29T13:25:24.357Z,22.70
2017-09-29T13:27:52.652Z,22.70
2017-09-29T13:30:20.922Z,22.80
2017-09-29T13:32:48.426Z,22.80
2017-09-29T13:35:16.728Z,22.80
2017-09-29T13:37:44.982Z,23.00
2017-09-29T13:40:12.520Z,23.00
2017-09-29T13:42:40.806Z,23.30
2017-09-29T13:45:09.071Z,23.30
2017-09-29T13:47:37.363Z,23.20
2017-09-29T13:50:04.861Z,23.20
2017-09-29T13:52:34.206Z,23.20
2017-09-29T13:55:02.493Z,23.10
2017-09-29T13:57:30.827Z,23.10
2017-09-29T14:00:00.711Z,23.10
2017-09-29T14:02:29.973Z,23.00
2017-09-29T14:04:58.284Z,23.00
2017-09-29T14:07:26.596Z,23.00
2017-09-29T14:10:02.895Z,22.90
2017-09-29T14:12:31.187Z,23.00
2017-09-29T14:15:00.823Z,23.00
2017-09-29T14:17:30.033Z,22.90
2017-09-29T14:19:58.319Z,22.90
2017-09-29T14:22:27.515Z,22.90
2017-09-29T14:24:55.810Z,22.90
2017-09-29T14:27:24.116Z,22.80
2017-09-29T14:29:52.375Z,22.90
2017-09-29T14:32:20.628Z,22.90
2017-09-29T14:34:48.924Z,22.90
2017-09-29T14:37:17.176Z,22.80
2017-09-29T14:39:45.482Z,22.70
2017-09-29T14:42:13.743Z,22.80
2017-09-29T14:44:41.996Z,22.90
2017-09-29T14:47:10.307Z,22.80
2017-09-29T14:49:38.573Z,22.80
2017-09-29T14:52:10.604Z,22.70
2017-09-29T14:54:38.901Z,22.60
2017-09-29T14:57:15.396Z,22.70
2017-09-29T14:59:43.691Z,22.70
2017-09-29T15:02:11.949Z,22.60
2017-09-29T15:04:40.217Z,22.60
2017-09-29T15:07:08.504Z,22.60
2017-09-29T15:09:36.780Z,22.50
2017-09-29T15:12:07.054Z,22.50
2017-09-29T15:14:35.343Z,22.50
2017-09-29T15:17:08.269Z,22.40
2017-09-29T15:19:36.555Z,22.30
2017-09-29T15:22:04.861Z,22.30
2017-09-29T15:24:34.550Z,22.30
2017-09-29T15:27:04.491Z,22.20
2017-09-29T15:29:33.140Z,22.10
2017-09-29T15:32:07.291Z,22.10
2017-09-29T15:34:35.583Z,22.00
2017-09-29T15:37:04.261Z,22.10
2017-09-29T15:39:33.186Z,22.10
2017-09-29T15:42:01.480Z,22.10
2017-09-29T15:44:30.186Z,22.10
2017-09-29T15:46:58.443Z,22.10
2017-09-29T15:49:26.707Z,22.10
2017-09-29T15:51:55.237Z,22.10
2017-09-29T15:54:23.496Z,22.10
2017-09-29T15:56:51.755Z,22.10
2017-09-29T15:59:20.046Z,22.10
2017-09-29T16:01:48.352Z,22.10
2017-09-29T16:04:16.616Z,22.10
2017-09-29T16:06:44.864Z,22.10
2017-09-29T16:09:14.088Z,22.10
2017-09-29T16:11:42.458Z,22.00
2017-09-29T16:14:10.776Z,21.90
2017-09-29T16:16:39.041Z,21.90
2017-09-29T16:19:07.316Z,21.90
2017-09-29T16:21:35.602Z,21.90
2017-09-29T16:24:04.535Z,21.80
2017-09-29T16:26:34.284Z,21.80
2017-09-29T16:29:03.328Z,21.80
2017-09-29T16:31:31.613Z,21.70
2017-09-29T16:33:59.918Z,21.60
2017-09-29T16:36:28.215Z,21.60
2017-09-29T16:38:56.468Z,21.50
2017-09-29T16:41:23.956Z,21.50
2017-09-29T16:43:52.249Z,21.40
2017-09-29T16:46:20.512Z,21.30
2017-09-29T16:48:48.000Z,21.30
2017-09-29T16:51:16.292Z,21.30
2017-09-29T16:53:44.548Z,21.30
2017-09-29T16:56:12.821Z,21.20
2017-09-29T16:58:41.112Z,21.20
2017-09-29T17:01:09.705Z,21.10
2017-09-29T17:03:47.728Z,21.00
2017-09-29T17:06:15.988Z,21.00
2017-09-29T17:08:44.271Z,21.20
2017-09-29T17:11:12.531Z,21.20
2017-09-29T17:13:40.836Z,21.20
2017-09-29T17:16:08.343Z,21.20
2017-09-29T17:18:37.499Z,21.10
2017-09-29T17:21:05.145Z,21.10
2017-09-29T17:23:35.400Z,21.00
2017-09-29T17:26:04.130Z,21.00
2017-09-29T17:28:33.321Z,21.00
2017-09-29T17:31:01.584Z,20.90
2017-09-29T17:33:31.183Z,20.90
2017-09-29T17:36:00.491Z,20.90
2017-09-29T17:38:29.530Z,20.80
2017-09-29T17:40:57.788Z,20.80
2017-09-29T17:43:26.077Z,20.90
2017-09-29T17:45:54.371Z,20.80
2017-09-29T17:48:22.639Z,20.80
2017-09-29T17:50:50.927Z,20.90
2017-09-29T17:53:19.175Z,20.90
2017-09-29T17:55:47.479Z,21.00
2017-09-29T17:58:15.745Z,20.90
2017-09-29T18:00:44.000Z,20.90
2017-09-29T18:03:12.282Z,20.80
2017-09-29T18:05:40.543Z,20.60
2017-09-29T18:08:12.185Z,20.50
2017-09-29T18:10:40.442Z,20.50
2017-09-29T18:13:08.696Z,20.50
2017-09-29T18:15:37.013Z,20.30
2017-09-29T18:18:06.421Z,20.30
2017-09-29T18:20:35.448Z,20.40
2017-09-29T18:23:08.520Z,20.30
2017-09-29T18:25:36.797Z,20.30
2017-09-29T18:28:05.170Z,20.30
2017-09-29T18:30:33.305Z,20.30
2017-09-29T18:33:01.592Z,20.30
2017-09-29T18:35:30.215Z,20.30
2017-09-29T18:37:58.479Z,20.30
2017-09-29T18:40:27.387Z,20.20
2017-09-29T18:43:08.378Z,20.20
2017-09-29T18:45:37.469Z,20.20
2017-09-29T18:48:05.732Z,20.20
2017-09-29T18:50:34.816Z,20.30
2017-09-29T18:53:07.676Z,20.20
2017-09-29T18:55:35.928Z,20.20
2017-09-29T18:58:10.535Z,20.20
2017-09-29T19:00:38.796Z,20.20
2017-09-29T19:03:07.066Z,20.10
2017-09-29T19:05:35.407Z,20.20
2017-09-29T19:08:03.666Z,20.10
2017-09-29T19:10:33.579Z,20.10
2017-09-29T19:13:01.840Z,20.10
2017-09-29T19:15:32.071Z,20.10
2017-09-29T19:18:00.758Z,20.00
2017-09-29T19:20:34.678Z,20.00
2017-09-29T19:23:03.917Z,20.00
2017-09-29T19:25:32.171Z,19.90
2017-09-29T19:28:03.585Z,20.00
2017-09-29T19:30:31.907Z,20.00
2017-09-29T19:33:00.990Z,19.90
2017-09-29T19:35:30.287Z,19.90
2017-09-29T19:37:58.616Z,19.90
2017-09-29T19:40:26.887Z,19.90
2017-09-29T19:42:56.119Z,19.90
2017-09-29T19:45:24.413Z,19.80
2017-09-29T19:47:52.722Z,19.80
2017-09-29T19:50:20.991Z,19.80
2017-09-29T19:53:06.904Z,19.90
2017-09-29T19:55:35.173Z,19.80
2017-09-29T19:58:07.688Z,19.80
2017-09-29T20:00:35.943Z,19.80
2017-09-29T20:03:09.828Z,19.80
2017-09-29T20:05:38.088Z,19.90
2017-09-29T20:08:11.053Z,19.80
2017-09-29T20:10:39.337Z,19.90
2017-09-29T20:13:07.625Z,20.00
2017-09-29T20:15:35.924Z,19.90
2017-09-29T20:18:05.399Z,19.80
2017-09-29T20:20:34.102Z,19.80
2017-09-29T20:23:05.724Z,19.80
2017-09-29T20:25:35.139Z,19.90
2017-09-29T20:28:09.714Z,19.80
2017-09-29T20:30:37.979Z,20.00
2017-09-29T20:33:07.151Z,19.90
2017-09-29T20:35:35.437Z,19.90
2017-09-29T20:38:04.092Z,19.90
2017-09-29T20:40:33.653Z,20.00
2017-09-29T20:43:09.141Z,20.10
2017-09-29T20:45:37.430Z,20.00
2017-09-29T20:48:09.423Z,20.00
2017-09-29T20:50:37.720Z,19.90
2017-09-29T20:53:05.980Z,19.80
2017-09-29T20:55:35.192Z,19.90
2017-09-29T20:58:10.427Z,19.90
2017-09-29T21:00:38.731Z,19.90
2017-09-29T21:03:07.005Z,19.90
2017-09-29T21:05:35.282Z,19.90
2017-09-29T21:08:03.596Z,19.90
2017-09-29T21:10:31.847Z,19.90
2017-09-29T21:13:01.545Z,19.90
2017-09-29T21:15:29.830Z,19.80
2017-09-29T21:17:59.464Z,19.90
2017-09-29T21:20:27.767Z,19.90
2017-09-29T21:22:56.024Z,19.80
2017-09-29T21:25:24.283Z,19.70
2017-09-29T21:27:57.628Z,19.70
2017-09-29T21:30:25.893Z,19.80
2017-09-29T21:32:54.183Z,19.80
2017-09-29T21:35:22.471Z,19.80
2017-09-29T21:37:50.777Z,19.80
2017-09-29T21:40:19.094Z,19.70
2017-09-29T21:42:46.606Z,19.70
2017-09-29T21:45:14.868Z,19.60
2017-09-29T21:47:42.411Z,19.60
2017-09-29T21:50:10.679Z,19.70
2017-09-29T21:52:44.966Z,19.60
2017-09-29T21:55:13.219Z,19.60
2017-09-29T21:57:46.416Z,19.60
2017-09-29T22:00:14.732Z,19.50
2017-09-29T22:02:42.992Z,19.50
2017-09-29T22:05:11.268Z,19.50
2017-09-29T22:07:39.550Z,19.50
2017-09-29T22:10:09.744Z,19.50
2017-09-29T22:12:38.031Z,19.50
2017-09-29T22:15:16.484Z,19.50
2017-09-29T22:17:44.758Z,19.50
2017-09-29T22:20:14.051Z,19.40
2017-09-29T22:22:42.303Z,19.50
2017-09-29T22:25:14.123Z,19.50
2017-09-29T22:27:42.388Z,19.40
2017-09-29T22:30:14.013Z,19.50
2017-09-29T22:32:42.292Z,19.40
2017-09-29T22:35:10.563Z,19.40
2017-09-29T22:37:38.852Z,19.40
2017-09-29T22:40:16.907Z,19.40
2017-09-29T22:42:45.176Z,19.40
2017-09-29T22:45:13.447Z,19.40
2017-09-29T22:47:41.752Z,19.40
2017-09-29T22:50:10.020Z,19.40
2017-09-29T22:52:38.285Z,19.40
2017-09-29T22:55:07.580Z,19.40
2017-09-29T22:57:35.846Z,19.40
2017-09-29T23:00:05.108Z,19.30
2017-09-29T23:02:34.409Z,19.30
2017-09-29T23:05:19.250Z,19.40
2017-09-29T23:07:47.565Z,19.30
2017-09-29T23:10:22.652Z,19.30
2017-09-29T23:12:50.924Z,19.30
2017-09-29T23:15:25.702Z,19.30
2017-09-29T23:17:53.956Z,19.20
2017-09-29T23:20:23.176Z,19.30
2017-09-29T23:22:51.434Z,19.30
2017-09-29T23:25:24.228Z,19.30
2017-09-29T23:27:52.495Z,19.20
2017-09-29T23:30:20.759Z,19.20
2017-09-29T23:32:49.070Z,19.20
2017-09-29T23:35:17.377Z,19.20
2017-09-29T23:37:45.686Z,19.20
2017-09-29T23:40:15.200Z,19.20
2017-09-29T23:42:43.460Z,19.20
2017-09-29T23:45:11.751Z,19.20
2017-09-29T23:47:40.037Z,19.20
2017-09-29T23:50:08.340Z,19.20
2017-09-29T23:52:36.599Z,19.30
2017-09-29T23:55:08.114Z,19.40
2017-09-29T23:57:35.624Z,19.40
